createdAt,value
2023-01-19T00:02:43.521Z,1.31
2023-01-19T00:07:46.030Z,1.32
2023-01-19T00:12:47.697Z,1.31
2023-01-19T00:17:49.337Z,1.34
2023-01-19T00:22:51.192Z,1.34
2023-01-19T00:27:52.871Z,1.27
2023-01-19T00:32:54.572Z,1.27
2023-01-19T00:37:58.157Z,1.20
2023-01-19T00:43:00.709Z,1.12
2023-01-19T00:48:02.658Z,1.14
2023-01-19T00:53:04.399Z,1.13
2023-01-19T00:58:07.365Z,1.03
2023-01-19T01:03:09.989Z,0.94
2023-01-19T01:08:11.723Z,0.95
2023-01-19T01:13:20.682Z,0.98
2023-01-19T01:18:26.400Z,0.86
2023-01-19T01:23:28.067Z,0.76
2023-01-19T01:28:29.729Z,0.71
2023-01-19T01:33:40.953Z,0.75
2023-01-19T01:38:43.424Z,0.78
2023-01-19T01:43:51.665Z,0.79
2023-01-19T01:49:07.777Z,0.72
2023-01-19T01:54:21.329Z,0.65
2023-01-19T01:59:34.897Z,0.71
2023-01-19T02:04:38.453Z,0.76
2023-01-19T02:09:58.828Z,0.75
2023-01-19T02:15:00.427Z,0.51
2023-01-19T02:20:02.301Z,0.76
2023-01-19T02:25:05.669Z,0.78
2023-01-19T02:30:08.693Z,0.76
2023-01-19T02:35:12.251Z,0.62
2023-01-19T02:40:20.222Z,0.67
2023-01-19T02:45:23.420Z,0.63
2023-01-19T02:50:39.495Z,0.69
2023-01-19T02:55:46.996Z,0.72
2023-01-19T03:00:57.622Z,0.68
2023-01-19T03:06:01.964Z,0.64
2023-01-19T03:11:14.763Z,0.67
2023-01-19T03:16:29.850Z,0.67
2023-01-19T03:21:35.897Z,0.55
2023-01-19T03:26:44.134Z,0.63
2023-01-19T03:31:49.944Z,0.74
2023-01-19T03:36:59.055Z,0.76
2023-01-19T03:42:08.590Z,0.73
2023-01-19T03:47:11.814Z,0.72
2023-01-19T03:52:14.288Z,0.78
2023-01-19T03:57:15.999Z,0.78
2023-01-19T04:02:17.808Z,0.72
2023-01-19T04:07:19.526Z,0.75
2023-01-19T04:12:21.185Z,0.57
2023-01-19T04:17:22.878Z,0.66
2023-01-19T04:22:24.521Z,0.74
2023-01-19T04:27:26.203Z,0.70
2023-01-19T04:32:27.831Z,0.77
2023-01-19T04:37:29.476Z,0.72
2023-01-19T04:42:31.142Z,0.71
2023-01-19T04:47:32.863Z,0.72
2023-01-19T04:52:35.770Z,0.73
2023-01-19T04:57:37.671Z,0.74
2023-01-19T05:02:39.351Z,0.75
2023-01-19T05:07:41.221Z,0.84
2023-01-19T05:12:42.935Z,0.81
2023-01-19T05:17:44.644Z,0.71
2023-01-19T05:22:50.720Z,0.63
2023-01-19T05:27:52.589Z,0.72
2023-01-19T05:32:54.219Z,0.63
2023-01-19T05:37:55.844Z,0.59
2023-01-19T05:43:01.323Z,0.63
2023-01-19T05:48:03.344Z,0.43
2023-01-19T05:53:04.973Z,0.57
2023-01-19T05:58:06.630Z,0.54
2023-01-19T06:03:08.303Z,0.53
2023-01-19T06:08:09.924Z,0.64
2023-01-19T06:13:11.619Z,0.66
2023-01-19T06:18:15.257Z,0.65
2023-01-19T06:23:16.901Z,0.55
2023-01-19T06:28:18.862Z,0.59
2023-01-19T06:33:21.104Z,0.59
2023-01-19T06:38:23.270Z,0.61
2023-01-19T06:43:25.918Z,0.57
2023-01-19T06:48:27.806Z,0.50
2023-01-19T06:53:30.342Z,0.51
2023-01-19T06:58:32.155Z,0.50
2023-01-19T07:03:34.981Z,0.57
2023-01-19T07:08:37.777Z,0.58
2023-01-19T07:13:40.515Z,0.61
2023-01-19T07:18:42.232Z,0.65
2023-01-19T07:23:43.881Z,0.61
2023-01-19T07:28:47.369Z,0.54
2023-01-19T07:33:50.136Z,0.55
2023-01-19T07:38:51.854Z,0.63
2023-01-19T07:43:53.548Z,0.62
2023-01-19T07:48:55.326Z,0.55
2023-01-19T07:53:56.946Z,0.65
2023-01-19T07:58:58.639Z,0.58
2023-01-19T08:04:00.313Z,0.61
2023-01-19T08:09:02.489Z,0.53
2023-01-19T08:14:06.960Z,0.45
2023-01-19T08:19:09.781Z,0.54
2023-01-19T08:24:18.823Z,0.49
2023-01-19T08:29:20.515Z,0.61
2023-01-19T08:34:22.223Z,0.52
2023-01-19T08:39:24.587Z,0.71
2023-01-19T08:44:27.471Z,0.66
2023-01-19T08:49:29.111Z,0.64
2023-01-19T08:54:30.839Z,0.77
2023-01-19T08:59:32.592Z,0.78
2023-01-19T09:04:35.165Z,0.76
2023-01-19T09:09:38.045Z,0.80
2023-01-19T09:14:39.728Z,0.69
2023-01-19T09:19:41.692Z,0.65
2023-01-19T09:24:43.473Z,0.63
2023-01-19T09:29:52.479Z,0.58
2023-01-19T09:34:55.213Z,0.51
2023-01-19T09:39:57.010Z,0.52
2023-01-19T09:44:58.937Z,0.43
2023-01-19T09:50:10.671Z,0.39
2023-01-19T09:55:26.233Z,0.42
2023-01-19T10:00:31.016Z,0.35
2023-01-19T10:05:47.557Z,0.42
2023-01-19T10:10:53.737Z,0.27
2023-01-19T10:16:18.478Z,0.31
2023-01-19T10:21:24.996Z,0.33
2023-01-19T10:26:34.024Z,0.39
2023-01-19T10:31:37.600Z,0.32
2023-01-19T10:36:41.143Z,0.41
2023-01-19T10:41:49.038Z,0.44
2023-01-19T10:46:51.528Z,0.43
2023-01-19T10:51:54.767Z,0.47
2023-01-19T10:57:04.251Z,0.52
2023-01-19T11:02:29.306Z,0.50
2023-01-19T11:07:33.790Z,0.50
2023-01-19T11:12:40.766Z,0.53
2023-01-19T11:17:48.344Z,0.46
2023-01-19T11:23:22.217Z,0.53
2023-01-19T11:28:56.066Z,0.44
2023-01-19T11:34:04.421Z,0.39
2023-01-19T11:39:18.147Z,0.45
2023-01-19T11:44:22.818Z,0.27
2023-01-19T11:49:47.532Z,0.36
2023-01-19T11:55:03.570Z,0.41
2023-01-19T12:00:36.224Z,0.37
2023-01-19T12:05:41.997Z,0.42
2023-01-19T12:10:47.274Z,0.42
2023-01-19T12:15:55.681Z,0.46
2023-01-19T12:20:58.974Z,0.57
2023-01-19T12:26:27.959Z,0.57
2023-01-19T12:31:29.891Z,0.72
2023-01-19T12:36:35.578Z,0.64
2023-01-19T12:41:38.924Z,0.71
2023-01-19T12:46:44.528Z,0.73
2023-01-19T12:51:46.960Z,0.73
2023-01-19T12:56:49.744Z,0.66
2023-01-19T13:02:26.756Z,0.69
2023-01-19T13:07:28.443Z,0.72
2023-01-19T13:12:30.676Z,0.60
2023-01-19T13:17:44.602Z,0.72
2023-01-19T13:22:50.200Z,0.73
2023-01-19T13:27:52.008Z,0.69
2023-01-19T13:33:05.598Z,0.71
2023-01-19T13:38:11.819Z,0.62
2023-01-19T13:43:19.602Z,0.67
2023-01-19T13:48:23.767Z,0.58
2023-01-19T13:53:25.645Z,0.66
2023-01-19T13:58:28.669Z,0.70
2023-01-19T14:03:30.385Z,0.74
2023-01-19T14:08:33.927Z,0.78
2023-01-19T14:13:40.294Z,0.54
2023-01-19T14:18:41.996Z,0.67
2023-01-19T14:24:20.647Z,0.67
2023-01-19T14:29:32.805Z,0.66
2023-01-19T14:34:48.921Z,0.76
2023-01-19T14:39:52.001Z,0.76
2023-01-19T14:44:56.571Z,0.75
2023-01-19T14:50:07.548Z,0.68
2023-01-19T14:55:33.926Z,0.72
2023-01-19T15:00:35.739Z,0.66
2023-01-19T15:05:39.579Z,0.61
2023-01-19T15:10:41.648Z,0.59
2023-01-19T15:15:43.316Z,0.72
2023-01-19T15:20:45.003Z,0.65
2023-01-19T15:25:46.664Z,0.73
2023-01-19T15:30:48.384Z,0.66
2023-01-19T15:35:50.540Z,0.76
2023-01-19T15:40:52.260Z,0.78
2023-01-19T15:46:02.501Z,0.73
2023-01-19T15:51:04.324Z,0.70
2023-01-19T15:56:06.248Z,0.66
2023-01-19T16:01:13.384Z,0.69
2023-01-19T16:06:18.999Z,0.64
2023-01-19T16:11:20.658Z,0.67
2023-01-19T16:16:24.835Z,0.65
2023-01-19T16:21:27.035Z,0.66
2023-01-19T16:26:34.271Z,0.63
2023-01-19T16:31:37.140Z,0.60
2023-01-19T16:36:41.676Z,0.59
2023-01-19T16:41:44.659Z,0.64
2023-01-19T16:46:49.878Z,0.63
2023-01-19T16:51:54.850Z,0.63
2023-01-19T16:56:57.566Z,0.63
2023-01-19T17:01:59.413Z,0.62
2023-01-19T17:07:01.543Z,0.61
2023-01-19T17:12:03.972Z,0.55
2023-01-19T17:17:06.040Z,0.46
2023-01-19T17:22:07.849Z,0.51
2023-01-19T17:27:11.389Z,0.50
2023-01-19T17:32:13.589Z,0.45
2023-01-19T17:37:15.583Z,0.37
2023-01-19T17:42:17.760Z,0.39
2023-01-19T17:47:26.332Z,0.33
2023-01-19T17:52:28.413Z,0.26
2023-01-19T17:57:30.866Z,0.30
2023-01-19T18:02:34.712Z,0.30
2023-01-19T18:07:36.818Z,0.27
2023-01-19T18:12:41.263Z,0.15
2023-01-19T18:17:43.873Z,0.27
2023-01-19T18:22:46.200Z,0.23
2023-01-19T18:27:48.957Z,0.30
2023-01-19T18:32:52.655Z,0.31
2023-01-19T18:37:57.283Z,0.18
2023-01-19T18:43:01.156Z,0.21
2023-01-19T18:48:05.303Z,0.25
2023-01-19T18:53:07.307Z,0.27
2023-01-19T18:58:09.705Z,0.28
2023-01-19T19:03:11.992Z,0.24
2023-01-19T19:08:14.619Z,0.24
2023-01-19T19:13:17.775Z,0.27
2023-01-19T19:18:20.905Z,0.27
2023-01-19T19:23:23.911Z,0.27
2023-01-19T19:28:26.489Z,0.30
2023-01-19T19:33:29.058Z,0.26
2023-01-19T19:38:33.844Z,0.22
2023-01-19T19:43:36.964Z,0.30
2023-01-19T19:48:57.443Z,0.30
2023-01-19T19:54:02.699Z,0.27
2023-01-19T19:59:05.577Z,0.18
2023-01-19T20:04:12.296Z,0.23
2023-01-19T20:09:15.323Z,0.23
2023-01-19T20:14:18.005Z,0.25
2023-01-19T20:19:20.808Z,0.17
2023-01-19T20:24:23.725Z,0.23
2023-01-19T20:29:29.668Z,0.20
2023-01-19T20:34:33.830Z,0.26
2023-01-19T20:39:38.356Z,0.22
2023-01-19T20:44:40.783Z,0.23
2023-01-19T20:49:43.216Z,0.20
2023-01-19T20:54:45.327Z,0.14
2023-01-19T20:59:47.389Z,0.15
2023-01-19T21:04:53.886Z,0.02
2023-01-19T21:09:55.751Z,0.15
2023-01-19T21:14:57.436Z,0.15
2023-01-19T21:19:59.634Z,0.13
2023-01-19T21:25:02.044Z,-0.14
2023-01-19T21:30:03.974Z,-0.01
2023-01-19T21:35:06.255Z,0.03
2023-01-19T21:40:08.500Z,-0.02
2023-01-19T21:45:10.958Z,0.10
2023-01-19T21:50:12.933Z,0.04
2023-01-19T21:55:14.935Z,0.06
2023-01-19T22:00:17.448Z,-0.27
2023-01-19T22:05:19.117Z,-0.12
2023-01-19T22:10:20.934Z,-0.22
2023-01-19T22:15:22.633Z,-0.07
2023-01-19T22:20:24.395Z,0.00
2023-01-19T22:25:27.998Z,-0.05
2023-01-19T22:30:29.871Z,-0.06
2023-01-19T22:35:31.582Z,0.02
2023-01-19T22:40:33.306Z,-0.01
2023-01-19T22:45:34.997Z,-0.08
2023-01-19T22:50:36.637Z,-0.18
2023-01-19T22:55:38.374Z,-0.23
2023-01-19T23:00:40.017Z,-0.18
2023-01-19T23:05:41.861Z,-0.14
2023-01-19T23:10:43.558Z,-0.27
2023-01-19T23:15:45.222Z,-0.21
2023-01-19T23:20:46.938Z,-0.12
2023-01-19T23:25:48.579Z,-0.18
2023-01-19T23:30:50.326Z,-0.19
2023-01-19T23:35:54.378Z,-0.33
2023-01-19T23:40:58.905Z,-0.31
2023-01-19T23:46:05.320Z,-0.31
2023-01-19T23:51:15.229Z,-0.29
2023-01-19T23:56:20.174Z,-0.17
